createdAt,value
2023-04-10T04:07:56.294Z,-1.10
2023-04-10T04:11:11.729Z,-1.00
2023-04-10T04:13:44.392Z,-0.90
2023-04-10T04:19:34.010Z,-0.80
2023-04-10T04:22:01.048Z,-1.00
2023-04-10T04:24:31.156Z,-1.00
2023-04-10T04:27:01.494Z,-0.90
2023-04-10T04:29:36.418Z,-1.00
2023-04-10T04:35:14.606Z,-0.90
2023-04-10T04:37:56.766Z,-0.90
2023-04-10T04:40:26.680Z,-0.90
2023-04-10T04:43:01.840Z,-1.00
2023-04-10T04:45:31.129Z,-1.10
2023-04-10T04:47:58.169Z,-1.10
2023-04-10T04:50:25.274Z,-1.10
2023-04-10T04:53:25.280Z,-1.10
2023-04-10T04:56:18.711Z,-1.10
2023-04-10T05:34:26.417Z,-0.40
2023-04-10T05:36:59.886Z,-0.30
2023-04-10T05:39:31.630Z,-0.30
2023-04-10T05:42:05.554Z,-0.20
2023-04-10T05:44:32.284Z,-0.10
2023-04-10T05:46:58.993Z,0.00
2023-04-10T05:49:28.522Z,0.20
2023-04-10T05:51:55.249Z,0.20
2023-04-10T05:54:22.195Z,0.30
2023-04-10T05:56:48.903Z,0.30
2023-04-10T05:59:16.008Z,0.40
2023-04-10T06:01:42.832Z,0.50
2023-04-10T06:04:09.729Z,0.60
2023-04-10T06:06:36.961Z,0.70
2023-04-10T06:09:03.732Z,0.80
2023-04-10T06:11:30.611Z,0.90
2023-04-10T06:13:57.296Z,1.10
2023-04-10T06:16:24.125Z,1.30
2023-04-10T06:18:52.770Z,1.40
2023-04-10T06:21:19.775Z,1.60
2023-04-10T06:23:46.874Z,1.90
2023-04-10T06:26:13.640Z,2.40
2023-04-10T06:28:40.376Z,2.60
2023-04-10T06:31:07.616Z,2.70
2023-04-10T06:33:37.133Z,2.90
2023-04-10T06:36:04.868Z,3.10
2023-04-10T06:38:33.916Z,3.30
2023-04-10T06:41:00.676Z,3.40
2023-04-10T06:43:28.117Z,3.60
2023-04-10T06:45:54.834Z,3.70
2023-04-10T06:48:21.519Z,3.80
2023-04-10T06:50:48.233Z,3.90
2023-04-10T06:53:14.946Z,4.20
2023-04-10T06:55:41.636Z,4.40
2023-04-10T06:58:08.366Z,4.60
2023-04-10T07:00:35.084Z,4.70
2023-04-10T07:03:01.993Z,4.80
2023-04-10T07:05:28.846Z,4.90
2023-04-10T07:07:55.612Z,4.90
2023-04-10T07:10:22.409Z,5.10
2023-04-10T07:12:49.063Z,5.00
2023-04-10T07:15:16.224Z,5.10
2023-04-10T07:17:43.542Z,5.10
2023-04-10T07:20:11.034Z,5.30
2023-04-10T07:22:37.726Z,5.40
2023-04-10T07:25:04.842Z,5.60
2023-04-10T07:27:31.551Z,5.70
2023-04-10T07:29:58.222Z,6.00
2023-04-10T07:32:25.180Z,6.00
2023-04-10T07:34:52.074Z,6.20
2023-04-10T07:37:18.782Z,6.20
2023-04-10T07:39:45.627Z,6.20
2023-04-10T07:42:12.378Z,6.30
2023-04-10T07:44:39.221Z,6.30
2023-04-10T07:47:06.023Z,6.40
2023-04-10T07:49:32.757Z,6.60
2023-04-10T07:51:59.591Z,6.90
2023-04-10T07:54:26.354Z,7.00
2023-04-10T07:56:53.321Z,7.20
2023-04-10T07:59:20.095Z,7.50
2023-04-10T08:01:46.861Z,7.60
2023-04-10T08:04:13.727Z,7.70
2023-04-10T08:06:40.707Z,7.90
2023-04-10T08:09:07.426Z,8.10
2023-04-10T08:11:38.402Z,8.20
2023-04-10T08:14:06.953Z,8.10
2023-04-10T08:16:35.913Z,8.30
2023-04-10T08:19:03.312Z,8.20
2023-04-10T08:21:31.746Z,8.30
2023-04-10T08:24:00.490Z,8.40
2023-04-10T08:26:28.367Z,8.70
2023-04-10T08:28:57.735Z,8.70
2023-04-10T08:31:27.191Z,8.80
2023-04-10T08:33:54.439Z,8.90
2023-04-10T08:36:21.569Z,8.90
2023-04-10T08:38:48.551Z,9.00
2023-04-10T08:41:20.080Z,8.90
2023-04-10T08:43:47.208Z,9.10
2023-04-10T08:46:14.862Z,9.40
2023-04-10T08:49:00.357Z,9.50
2023-04-10T08:51:32.550Z,9.70
2023-04-10T08:54:06.001Z,9.90
2023-04-10T08:56:34.980Z,10.00
2023-04-10T08:59:04.814Z,9.80
2023-04-10T09:01:31.714Z,9.70
2023-04-10T09:03:59.482Z,9.90
2023-04-10T09:06:27.468Z,10.10
2023-04-10T09:08:54.314Z,10.10
2023-04-10T09:11:21.377Z,10.20
2023-04-10T09:13:48.795Z,10.30
2023-04-10T09:16:15.635Z,10.30
2023-04-10T09:18:51.155Z,10.10
2023-04-10T09:21:21.879Z,10.40
2023-04-10T09:23:50.093Z,10.80
2023-04-10T09:26:27.447Z,11.00
2023-04-10T09:29:07.696Z,10.80
2023-04-10T09:31:36.507Z,10.90
2023-04-10T09:34:13.792Z,11.20
2023-04-10T09:36:55.543Z,11.30
2023-04-10T09:39:22.979Z,11.40
2023-04-10T09:41:50.930Z,11.50
2023-04-10T09:44:27.747Z,11.60
2023-04-10T09:46:55.544Z,11.70
2023-04-10T09:49:22.644Z,11.80
2023-04-10T09:51:49.752Z,12.10
2023-04-10T09:54:16.491Z,12.30
2023-04-10T09:56:46.036Z,11.60
2023-04-10T09:59:14.262Z,11.80
2023-04-10T10:01:42.370Z,11.50
2023-04-10T10:04:09.748Z,12.00
2023-04-10T10:06:39.152Z,11.70
2023-04-10T10:09:06.134Z,11.90
2023-04-10T10:11:35.526Z,12.40
2023-04-10T10:14:13.349Z,12.80
2023-04-10T10:16:45.566Z,12.40
2023-04-10T10:19:42.695Z,12.10
2023-04-10T10:22:11.012Z,12.20
2023-04-10T10:24:40.041Z,12.30
2023-04-10T10:27:10.761Z,11.90
2023-04-10T10:29:39.588Z,12.20
2023-04-10T10:32:08.219Z,12.60
2023-04-10T10:34:35.841Z,12.70
2023-04-10T10:37:04.285Z,12.70
2023-04-10T10:39:57.647Z,12.40
2023-04-10T10:42:53.615Z,12.70
2023-04-10T10:45:26.742Z,13.20
2023-04-10T10:47:54.936Z,13.20
2023-04-10T10:50:24.244Z,12.90
2023-04-10T10:52:53.910Z,12.50
2023-04-10T10:55:31.560Z,12.60
2023-04-10T10:58:01.187Z,12.80
2023-04-10T11:00:50.742Z,13.00
2023-04-10T11:03:17.619Z,12.90
2023-04-10T11:06:03.004Z,12.90
2023-04-10T11:08:53.051Z,12.60
2023-04-10T11:11:23.344Z,13.20
2023-04-10T11:13:50.319Z,13.10
2023-04-10T11:16:17.116Z,13.20
2023-04-10T11:18:51.192Z,13.30
2023-04-10T11:21:23.781Z,13.70
2023-04-10T11:23:50.483Z,14.20
2023-04-10T11:26:35.890Z,13.70
2023-04-10T11:29:06.481Z,13.50
2023-04-10T11:31:33.936Z,13.50
2023-04-10T11:34:01.543Z,13.50
2023-04-10T11:36:28.847Z,13.30
2023-04-10T11:39:13.255Z,13.30
2023-04-10T11:41:42.712Z,13.50
2023-04-10T11:44:11.906Z,13.60
2023-04-10T11:46:40.384Z,13.70
2023-04-10T11:49:11.599Z,13.80
2023-04-10T11:51:39.921Z,14.30
2023-04-10T11:54:11.044Z,14.70
2023-04-10T11:56:42.306Z,14.50
2023-04-10T11:59:14.452Z,14.30
2023-04-10T12:01:43.332Z,13.80
2023-04-10T12:04:21.331Z,14.00
2023-04-10T12:06:53.192Z,14.10
2023-04-10T12:09:21.506Z,14.30
2023-04-10T12:12:05.136Z,14.50
2023-04-10T12:14:39.998Z,14.30
2023-04-10T12:17:09.062Z,14.10
2023-04-10T12:19:36.691Z,14.50
2023-04-10T12:22:03.613Z,14.10
2023-04-10T12:24:48.342Z,14.20
2023-04-10T12:27:26.968Z,14.20
2023-04-10T12:29:55.998Z,14.40
2023-04-10T12:32:24.118Z,14.70
2023-04-10T12:34:58.880Z,14.30
2023-04-10T12:37:45.666Z,14.10
2023-04-10T12:40:13.155Z,14.10
2023-04-10T12:42:43.669Z,14.20
2023-04-10T12:45:13.758Z,14.60
2023-04-10T12:47:58.760Z,14.60
2023-04-10T12:50:25.521Z,14.60
2023-04-10T12:53:11.662Z,14.80
2023-04-10T12:55:38.698Z,15.10
2023-04-10T12:58:20.078Z,15.40
2023-04-10T13:00:47.880Z,14.50
2023-04-10T13:03:14.764Z,14.20
2023-04-10T13:05:41.610Z,14.00
2023-04-10T13:08:08.492Z,14.20
2023-04-10T13:10:38.104Z,14.30
2023-04-10T13:13:06.921Z,14.40
2023-04-10T13:15:34.710Z,14.50
2023-04-10T13:18:02.357Z,14.60
2023-04-10T13:20:30.383Z,14.50
2023-04-10T13:22:57.068Z,14.70
2023-04-10T13:25:24.028Z,14.60
2023-04-10T13:27:50.753Z,14.70
2023-04-10T13:30:17.457Z,14.80
2023-04-10T13:32:44.153Z,14.70
2023-04-10T13:35:11.407Z,14.60
2023-04-10T13:37:38.084Z,14.50
2023-04-10T13:40:05.369Z,14.30
2023-04-10T13:42:32.046Z,14.80
2023-04-10T13:44:58.738Z,15.20
2023-04-10T13:47:25.594Z,14.80
2023-04-10T13:49:52.320Z,14.70
2023-04-10T13:52:19.010Z,14.90
2023-04-10T13:54:46.521Z,15.10
2023-04-10T13:57:13.779Z,15.10
2023-04-10T13:59:41.278Z,15.50
2023-04-10T14:02:09.167Z,15.30
2023-04-10T14:04:35.977Z,15.30
2023-04-10T14:07:02.755Z,15.50
2023-04-10T14:09:29.596Z,15.60
2023-04-10T14:11:56.320Z,15.90
2023-04-10T14:14:24.087Z,15.80
2023-04-10T14:16:51.419Z,15.70
2023-04-10T14:19:18.177Z,15.70
2023-04-10T14:21:44.953Z,15.90
2023-04-10T14:24:11.995Z,16.30
2023-04-10T14:26:38.948Z,16.30
2023-04-10T14:29:08.537Z,16.40
2023-04-10T14:31:39.172Z,15.80
2023-04-10T14:34:10.887Z,15.80
2023-04-10T14:36:37.608Z,16.00
2023-04-10T14:39:04.453Z,16.30
2023-04-10T14:41:31.141Z,15.90
2023-04-10T14:43:57.833Z,15.40
2023-04-10T14:46:25.580Z,15.10
2023-04-10T14:48:52.324Z,15.50
2023-04-10T14:51:19.713Z,15.30
2023-04-10T14:53:46.534Z,15.40
2023-04-10T14:56:14.270Z,15.40
2023-04-10T14:58:41.258Z,15.60
2023-04-10T15:01:11.861Z,16.10
2023-04-10T15:03:40.035Z,16.20
2023-04-10T15:06:07.357Z,15.80
2023-04-10T15:08:34.036Z,16.10
2023-04-10T15:11:01.911Z,16.20
2023-04-10T15:13:28.724Z,15.90
2023-04-10T15:15:56.294Z,15.30
2023-04-10T15:18:23.069Z,15.10
2023-04-10T15:20:49.768Z,15.10
2023-04-10T15:23:16.436Z,14.80
2023-04-10T15:25:43.101Z,14.80
2023-04-10T15:28:09.841Z,15.20
2023-04-10T15:30:36.561Z,15.60
2023-04-10T15:33:03.405Z,15.50
2023-04-10T15:35:34.114Z,15.30
2023-04-10T15:38:00.801Z,15.00
2023-04-10T15:40:28.512Z,15.00
2023-04-10T15:42:55.328Z,14.80
2023-04-10T15:45:22.027Z,14.60
2023-04-10T15:47:48.801Z,14.40
2023-04-10T15:50:15.569Z,14.30
2023-04-10T15:52:42.286Z,14.70
2023-04-10T15:55:09.085Z,14.70
2023-04-10T15:57:36.052Z,14.80
2023-04-10T16:00:04.303Z,15.10
2023-04-10T16:02:32.390Z,15.30
2023-04-10T16:04:59.363Z,15.50
2023-04-10T16:07:26.102Z,15.50
2023-04-10T16:09:55.038Z,15.20
2023-04-10T16:12:21.791Z,14.90
2023-04-10T16:14:48.524Z,14.90
2023-04-10T16:17:15.339Z,15.00
2023-04-10T16:19:42.051Z,14.70
2023-04-10T16:22:08.711Z,14.40
2023-04-10T16:24:35.481Z,14.20
2023-04-10T16:27:02.309Z,14.10
2023-04-10T16:29:29.034Z,14.10
2023-04-10T16:31:55.791Z,14.10
2023-04-10T16:34:22.601Z,14.30
2023-04-10T16:36:49.322Z,14.60
2023-04-10T16:39:16.055Z,14.80
2023-04-10T16:41:44.699Z,14.90
2023-04-10T16:44:11.487Z,14.90
2023-04-10T16:46:38.284Z,14.90
2023-04-10T16:49:05.102Z,14.90
2023-04-10T16:51:31.883Z,14.90
2023-04-10T16:53:58.802Z,14.80
2023-04-10T16:56:25.625Z,14.80
2023-04-10T16:58:52.622Z,14.70
2023-04-10T17:01:21.756Z,14.70
2023-04-10T17:03:49.021Z,14.50
2023-04-10T17:06:16.496Z,14.30
2023-04-10T17:08:43.935Z,14.10
2023-04-10T17:11:13.796Z,14.00
2023-04-10T17:13:41.275Z,13.90
2023-04-10T17:16:09.470Z,13.80
2023-04-10T17:18:36.202Z,13.70
2023-04-10T17:21:02.958Z,13.60
2023-04-10T17:23:30.272Z,13.50
2023-04-10T17:25:56.990Z,13.30
2023-04-10T17:28:23.767Z,13.30
2023-04-10T17:30:50.498Z,13.20
2023-04-10T17:33:17.306Z,13.00
2023-04-10T17:35:44.061Z,12.90
2023-04-10T17:38:10.835Z,12.90
2023-04-10T17:40:39.736Z,12.80
2023-04-10T17:43:06.491Z,12.70
2023-04-10T17:45:37.355Z,12.60
2023-04-10T17:48:05.083Z,12.40
2023-04-10T17:50:32.418Z,12.20
2023-04-10T17:53:02.535Z,11.90
2023-04-10T17:55:29.308Z,11.70
2023-04-10T17:57:58.528Z,11.40
2023-04-10T18:00:25.608Z,11.00
2023-04-10T18:03:14.222Z,11.00
2023-04-10T18:06:03.150Z,10.80
2023-04-10T18:08:30.037Z,10.70
2023-04-10T18:10:56.867Z,10.60
2023-04-10T18:13:23.713Z,10.60
2023-04-10T18:16:46.183Z,10.50
2023-04-10T18:19:34.970Z,10.40
2023-04-10T18:22:01.754Z,10.20
2023-04-10T18:24:28.573Z,10.20
2023-04-10T18:26:56.280Z,10.10
